Time;durP1;ratioP1;P1;durP2;ratioP2;P2;SDS_P1;SDS_P2;PMS_P1;PMS_P2;Temp;Humidity;BMP_temperature;BMP_pressure;BME280_temperature;BME280_humidity;BME280_pressure;Samples;Min_cycle;Max_cycle;Signal;HPM_P1;HPM_P2
2022/04/28 00:01:02;;;;;;;15.90;11.32;;;;;;;;;;6171249;28;20051;-72
2022/04/28 00:04:05;;;;;;;14.30;10.57;;;;;;;;;;6173389;28;20297;-72
2022/04/28 00:07:07;;;;;;;14.03;10.03;;;;;;;;;;6175214;28;20046;-72
2022/04/28 00:10:10;;;;;;;15.05;10.10;;;;;;;;;;6174339;28;20903;-72
2022/04/28 00:13:13;;;;;;;15.38;10.45;;;;;;;;;;6174021;28;20066;-72
2022/04/28 00:16:14;;;;;;;14.52;10.10;;;;;;;;;;6185092;28;20062;-72
2022/04/28 00:19:17;;;;;;;17.88;9.35;;;;;;;;;;6174966;28;20058;-72
2022/04/28 00:22:19;;;;;;;13.00;9.47;;;;;;;;;;6176228;28;20054;-72
2022/04/28 00:25:22;;;;;;;14.35;9.73;;;;;;;;;;6175586;28;20334;-72
2022/04/28 00:28:24;;;;;;;14.30;9.70;;;;;;;;;;6176027;28;20115;-72
2022/04/28 00:31:26;;;;;;;13.25;9.70;;;;;;;;;;6177936;28;20470;-72
2022/04/28 00:34:29;;;;;;;11.23;8.15;;;;;;;;;;6179634;28;20384;-72
2022/04/28 00:37:31;;;;;;;11.97;9.00;;;;;;;;;;6179161;28;20063;-72
2022/04/28 00:40:32;;;;;;;10.57;8.00;;;;;;;;;;6174239;28;20059;-72
2022/04/28 00:43:34;;;;;;;12.02;8.20;;;;;;;;;;6175548;28;20058;-72
2022/04/28 00:46:35;;;;;;;9.75;7.53;;;;;;;;;;6184847;28;20077;-72
2022/04/28 00:52:59;;;;;;;9.77;6.95;;;;;;;;;;6172390;28;20059;-72
2022/04/28 00:56:01;;;;;;;12.02;8.02;;;;;;;;;;6174674;28;20064;-72
2022/04/28 00:59:04;;;;;;;9.45;7.00;;;;;;;;;;6181198;28;20070;-72
2022/04/28 01:02:06;;;;;;;9.70;7.13;;;;;;;;;;6176694;28;20047;-72
2022/04/28 01:05:10;;;;;;;9.05;7.03;;;;;;;;;;6172405;28;20081;-72
2022/04/28 01:08:11;;;;;;;8.30;6.00;;;;;;;;;;6174102;28;20067;-72
2022/04/28 01:11:13;;;;;;;10.90;6.10;;;;;;;;;;6177266;28;20058;-72
2022/04/28 01:14:15;;;;;;;9.07;6.07;;;;;;;;;;6180071;28;20058;-72
2022/04/28 01:17:16;;;;;;;8.35;6.22;;;;;;;;;;6181880;28;20353;-72
2022/04/28 01:20:19;;;;;;;7.88;5.95;;;;;;;;;;6178052;28;20385;-72
2022/04/28 01:23:22;;;;;;;7.97;5.65;;;;;;;;;;6175524;28;20265;-72
2022/04/28 01:26:26;;;;;;;8.67;5.83;;;;;;;;;;6179915;28;20051;-72
2022/04/28 01:29:28;;;;;;;9.77;6.35;;;;;;;;;;6173887;28;20043;-72
2022/04/28 01:32:29;;;;;;;9.40;5.72;;;;;;;;;;6176239;28;20425;-72
2022/04/28 01:35:31;;;;;;;10.50;5.95;;;;;;;;;;6175185;28;20047;-73
2022/04/28 01:38:34;;;;;;;8.00;5.72;;;;;;;;;;6178046;28;20091;-72
2022/04/28 01:41:36;;;;;;;7.17;5.47;;;;;;;;;;6178040;28;20051;-72
2022/04/28 01:44:37;;;;;;;8.88;5.82;;;;;;;;;;6174371;28;20357;-72
2022/04/28 01:47:40;;;;;;;7.35;5.50;;;;;;;;;;6172521;28;20110;-72
2022/04/28 01:54:57;;;;;;;8.65;5.55;;;;;;;;;;6171159;28;20130;-72
2022/04/28 01:57:23;;;;;;;8.68;5.95;;;;;;;;;;6178731;28;20062;-72
2022/04/28 02:00:25;;;;;;;7.50;5.45;;;;;;;;;;6177014;28;20254;-72
2022/04/28 02:03:27;;;;;;;7.30;5.22;;;;;;;;;;6176389;28;20056;-72
2022/04/28 02:06:28;;;;;;;7.45;5.63;;;;;;;;;;6176136;28;20330;-72
2022/04/28 02:09:31;;;;;;;11.07;6.30;;;;;;;;;;6178005;28;20434;-72
2022/04/28 02:12:33;;;;;;;7.65;5.70;;;;;;;;;;6177999;28;20334;-72
2022/04/28 02:15:36;;;;;;;8.43;5.30;;;;;;;;;;6173575;28;20054;-71
2022/04/28 02:18:38;;;;;;;8.90;5.45;;;;;;;;;;6179378;28;20122;-72
2022/04/28 02:21:39;;;;;;;11.65;5.75;;;;;;;;;;6175337;28;20107;-72
2022/04/28 02:24:42;;;;;;;7.10;5.60;;;;;;;;;;6169315;28;20342;-72
2022/04/28 02:27:44;;;;;;;8.47;5.27;;;;;;;;;;6173951;28;20051;-72
2022/04/28 02:30:46;;;;;;;8.75;5.47;;;;;;;;;;6174549;28;20054;-72
2022/04/28 02:33:48;;;;;;;8.20;5.60;;;;;;;;;;6177796;28;20294;-72
2022/04/28 02:36:49;;;;;;;7.47;4.93;;;;;;;;;;6171821;28;20061;-72
2022/04/28 02:39:52;;;;;;;9.00;5.63;;;;;;;;;;6170628;28;20059;-72
2022/04/28 02:42:54;;;;;;;7.65;5.13;;;;;;;;;;6171109;28;20042;-72
2022/04/28 02:45:56;;;;;;;8.98;5.43;;;;;;;;;;6171006;28;20335;-72
2022/04/28 02:48:57;;;;;;;7.78;5.10;;;;;;;;;;6170186;28;20318;-72
2022/04/28 02:51:59;;;;;;;8.10;5.90;;;;;;;;;;6171554;28;20055;-72
2022/04/28 02:55:02;;;;;;;7.40;5.05;;;;;;;;;;6175087;28;20043;-72
2022/04/28 02:58:03;;;;;;;8.52;5.22;;;;;;;;;;6175805;28;20363;-72
2022/04/28 03:01:06;;;;;;;7.88;5.15;;;;;;;;;;6170981;28;20046;-72
2022/04/28 03:04:07;;;;;;;7.43;5.40;;;;;;;;;;6171982;28;20055;-72
2022/04/28 03:14:05;;;;;;;8.68;5.50;;;;;;;;;;6280851;27;20611;-71
2022/04/28 03:17:06;;;;;;;8.33;5.83;;;;;;;;;;6254921;28;20061;-72
2022/04/28 03:20:09;;;;;;;9.70;5.40;;;;;;;;;;6269052;28;20056;-72
2022/04/28 03:23:11;;;;;;;7.72;5.22;;;;;;;;;;6275708;28;20045;-71
2022/04/28 03:26:13;;;;;;;8.95;5.72;;;;;;;;;;6275273;28;20107;-72
2022/04/28 03:29:16;;;;;;;8.07;5.88;;;;;;;;;;6275842;28;20072;-72
2022/04/28 03:32:18;;;;;;;8.10;5.57;;;;;;;;;;6274454;28;20064;-72
2022/04/28 03:35:19;;;;;;;6.93;5.07;;;;;;;;;;6272663;28;20052;-72
2022/04/28 03:38:21;;;;;;;8.43;5.80;;;;;;;;;;6276924;28;20083;-72
2022/04/28 03:41:24;;;;;;;8.30;5.38;;;;;;;;;;6270539;28;20217;-72
2022/04/28 03:44:26;;;;;;;7.38;4.70;;;;;;;;;;6270585;28;20061;-71
2022/04/28 03:47:32;;;;;;;6.95;4.55;;;;;;;;;;6274503;28;20060;-72
2022/04/28 03:50:34;;;;;;;8.57;5.03;;;;;;;;;;6274655;28;20056;-72
2022/04/28 03:53:35;;;;;;;8.20;4.72;;;;;;;;;;6270292;28;20057;-71
2022/04/28 03:56:37;;;;;;;8.98;4.55;;;;;;;;;;6269570;28;20267;-71
2022/04/28 03:59:41;;;;;;;6.57;3.90;;;;;;;;;;6271238;28;20267;-72
2022/04/28 04:02:42;;;;;;;6.80;4.55;;;;;;;;;;6270530;28;20279;-71
2022/04/28 04:05:44;;;;;;;7.70;4.82;;;;;;;;;;6268353;28;20057;-71
2022/04/28 04:08:46;;;;;;;6.82;4.60;;;;;;;;;;6265831;28;20041;-72
2022/04/28 04:11:47;;;;;;;6.60;4.18;;;;;;;;;;6268170;28;20122;-72
2022/04/28 04:14:50;;;;;;;6.93;4.53;;;;;;;;;;6266523;28;20048;-72
2022/04/28 04:17:52;;;;;;;6.82;4.32;;;;;;;;;;6267887;28;20057;-72
2022/04/28 04:20:53;;;;;;;7.25;4.53;;;;;;;;;;6271632;28;20057;-71
2022/04/28 04:23:55;;;;;;;8.63;4.60;;;;;;;;;;6264289;28;20057;-71
2022/04/28 04:26:57;;;;;;;9.77;5.00;;;;;;;;;;6254132;28;20068;-71
2022/04/28 04:30:00;;;;;;;7.20;4.60;;;;;;;;;;6252904;28;20050;-72
2022/04/28 04:33:00;;;;;;;7.75;5.10;;;;;;;;;;6257426;28;20327;-71
2022/04/28 04:36:02;;;;;;;6.18;4.70;;;;;;;;;;6255051;28;20103;-72
2022/04/28 04:39:04;;;;;;;7.10;4.72;;;;;;;;;;6253270;28;20045;-72
2022/04/28 04:42:06;;;;;;;6.72;4.03;;;;;;;;;;6254227;28;20103;-72
2022/04/28 04:45:10;;;;;;;7.30;4.80;;;;;;;;;;6257566;28;20119;-71
2022/04/28 04:48:13;;;;;;;6.40;4.57;;;;;;;;;;6255530;28;20294;-72
2022/04/28 04:51:14;;;;;;;7.70;4.88;;;;;;;;;;6254899;28;20045;-72
2022/04/28 04:54:16;;;;;;;7.80;4.10;;;;;;;;;;6255384;28;20049;-72
2022/04/28 04:57:17;;;;;;;7.25;4.40;;;;;;;;;;6257540;28;20049;-72
2022/04/28 05:00:21;;;;;;;6.20;4.70;;;;;;;;;;6257596;28;20139;-72
2022/04/28 05:03:22;;;;;;;6.23;3.97;;;;;;;;;;6253878;28;20065;-72
2022/04/28 05:06:24;;;;;;;5.88;3.63;;;;;;;;;;6257520;28;20463;-72
2022/04/28 05:09:25;;;;;;;6.65;4.03;;;;;;;;;;6250210;28;20053;-72
2022/04/28 05:12:27;;;;;;;7.85;3.80;;;;;;;;;;6253118;28;20057;-73
2022/04/28 05:15:30;;;;;;;6.72;4.53;;;;;;;;;;6252468;28;20115;-74
2022/04/28 05:18:32;;;;;;;6.13;3.80;;;;;;;;;;6251904;28;20363;-74
2022/04/28 05:21:33;;;;;;;5.80;3.67;;;;;;;;;;6253579;28;20075;-75
2022/04/28 05:24:35;;;;;;;8.70;4.10;;;;;;;;;;6250932;28;20049;-75
2022/04/28 05:27:37;;;;;;;5.93;3.70;;;;;;;;;;6252878;28;20348;-75
2022/04/28 05:30:40;;;;;;;6.72;3.90;;;;;;;;;;6247841;28;20061;-73
2022/04/28 05:33:42;;;;;;;5.95;3.85;;;;;;;;;;6250511;28;20064;-73
2022/04/28 05:36:44;;;;;;;6.28;3.40;;;;;;;;;;6251873;28;20267;-73
2022/04/28 05:39:46;;;;;;;7.68;3.78;;;;;;;;;;6251026;28;20133;-74
2022/04/28 05:46:08;;;;;;;7.57;4.32;;;;;;;;;;6248187;28;20038;-73
2022/04/28 05:49:10;;;;;;;6.03;3.73;;;;;;;;;;6254098;28;20046;-73
2022/04/28 05:52:11;;;;;;;5.63;3.95;;;;;;;;;;6251224;28;20061;-73
2022/04/28 05:55:13;;;;;;;6.65;4.30;;;;;;;;;;6254273;28;20342;-73
2022/04/28 05:58:15;;;;;;;9.50;4.47;;;;;;;;;;6250297;28;20053;-74
2022/04/28 06:01:18;;;;;;;6.78;3.90;;;;;;;;;;6250623;28;20229;-80
2022/04/28 06:04:19;;;;;;;6.45;4.30;;;;;;;;;;6249920;28;20341;-77
2022/04/28 06:07:21;;;;;;;7.15;4.10;;;;;;;;;;6252337;28;20281;-79
2022/04/28 06:10:23;;;;;;;8.48;3.67;;;;;;;;;;6254079;28;20300;-81
2022/04/28 06:13:24;;;;;;;7.90;4.00;;;;;;;;;;6253895;28;20045;-80
2022/04/28 06:16:27;;;;;;;11.40;4.07;;;;;;;;;;6246931;28;20050;-79
2022/04/28 06:19:29;;;;;;;5.40;3.63;;;;;;;;;;6247315;28;20081;-80
2022/04/28 06:22:31;;;;;;;5.53;4.18;;;;;;;;;;6252259;28;20063;-80
2022/04/28 06:25:33;;;;;;;6.82;3.92;;;;;;;;;;6249221;28;20117;-80
2022/04/28 06:28:34;;;;;;;5.38;3.95;;;;;;;;;;6254393;28;20111;-80
2022/04/28 06:31:39;;;;;;;9.02;3.95;;;;;;;;;;6252100;28;20239;-80
2022/04/28 06:34:41;;;;;;;7.97;4.30;;;;;;;;;;6250750;28;20056;-80
2022/04/28 06:37:44;;;;;;;5.53;3.63;;;;;;;;;;6251972;28;20339;-80
2022/04/28 06:40:45;;;;;;;4.90;3.55;;;;;;;;;;6237342;28;20056;-80
2022/04/28 06:43:47;;;;;;;5.78;3.85;;;;;;;;;;6251186;28;20065;-81
2022/04/28 06:46:50;;;;;;;6.65;3.45;;;;;;;;;;6248210;28;20228;-75
2022/04/28 06:49:52;;;;;;;5.90;3.70;;;;;;;;;;6249688;28;20069;-75
2022/04/28 06:52:53;;;;;;;6.10;3.45;;;;;;;;;;6250321;28;20151;-75
2022/04/28 06:55:55;;;;;;;6.82;2.97;;;;;;;;;;6252875;28;20121;-73
2022/04/28 06:58:56;;;;;;;6.85;2.95;;;;;;;;;;6253642;28;20041;-77
2022/04/28 07:01:59;;;;;;;7.53;3.20;;;;;;;;;;6253035;28;20060;-77
2022/04/28 07:05:01;;;;;;;3.87;2.80;;;;;;;;;;6250968;28;20057;-77
2022/04/28 07:08:04;;;;;;;4.28;3.17;;;;;;;;;;6251766;28;20049;-75
2022/04/28 07:11:05;;;;;;;3.85;3.08;;;;;;;;;;6252016;28;20060;-75
2022/04/28 07:14:07;;;;;;;4.18;3.30;;;;;;;;;;6252885;28;20331;-76
2022/04/28 07:17:11;;;;;;;3.60;2.60;;;;;;;;;;6250140;28;20038;-76
2022/04/28 07:20:13;;;;;;;6.32;2.80;;;;;;;;;;6252980;28;20050;-76
2022/04/28 07:23:15;;;;;;;5.90;3.28;;;;;;;;;;6254094;28;20056;-70
2022/04/28 07:26:17;;;;;;;451.08;35.25;;;;;;;;;;6253870;28;20100;-72
2022/04/28 07:29:19;;;;;;;3.88;2.85;;;;;;;;;;6250644;28;20055;-71
2022/04/28 07:32:22;;;;;;;2.92;2.42;;;;;;;;;;6247466;28;20061;-76
2022/04/28 07:35:25;;;;;;;5.03;3.15;;;;;;;;;;6246510;28;20091;-77
2022/04/28 07:38:26;;;;;;;5.82;3.03;;;;;;;;;;6250276;28;20045;-78
2022/04/28 07:41:28;;;;;;;6.90;2.83;;;;;;;;;;6250452;28;20190;-77
2022/04/28 07:44:30;;;;;;;3.70;2.50;;;;;;;;;;6249083;28;20408;-77
2022/04/28 07:47:33;;;;;;;3.67;2.65;;;;;;;;;;6248390;28;20103;-77
2022/04/28 07:50:35;;;;;;;4.05;3.05;;;;;;;;;;6252835;28;20049;-77
2022/04/28 07:53:37;;;;;;;7.32;3.53;;;;;;;;;;6248788;28;20049;-77
2022/04/28 07:56:39;;;;;;;9.45;3.50;;;;;;;;;;6250441;28;20384;-76
2022/04/28 07:59:40;;;;;;;4.70;3.35;;;;;;;;;;6251613;28;20247;-78
2022/04/28 08:02:44;;;;;;;4.43;3.00;;;;;;;;;;6251637;28;20057;-76
2022/04/28 08:05:45;;;;;;;4.45;3.30;;;;;;;;;;6251653;28;20259;-77
2022/04/28 08:08:47;;;;;;;3.83;3.13;;;;;;;;;;6255712;28;20064;-77
2022/04/28 08:11:49;;;;;;;5.82;3.50;;;;;;;;;;6258948;28;20061;-77
2022/04/28 08:14:50;;;;;;;3.70;2.72;;;;;;;;;;6253448;28;20045;-76
2022/04/28 08:17:53;;;;;;;6.97;3.45;;;;;;;;;;6256405;28;20065;-76
2022/04/28 08:20:55;;;;;;;4.13;2.83;;;;;;;;;;6254707;28;20348;-77
2022/04/28 08:23:57;;;;;;;3.25;2.58;;;;;;;;;;6257397;28;20041;-76
2022/04/28 08:27:02;;;;;;;3.85;2.65;;;;;;;;;;6256781;28;20080;-76
2022/04/28 08:30:07;;;;;;;3.67;3.17;;;;;;;;;;6260784;28;20289;-76
2022/04/28 08:33:10;;;;;;;4.40;2.90;;;;;;;;;;6257656;28;20390;-76
2022/04/28 08:36:12;;;;;;;5.25;2.83;;;;;;;;;;6255878;28;20095;-76
2022/04/28 08:39:15;;;;;;;6.05;2.60;;;;;;;;;;6250392;28;20058;-76
2022/04/28 08:42:18;;;;;;;3.45;2.85;;;;;;;;;;6255962;28;20115;-77
2022/04/28 08:45:27;;;;;;;4.68;3.00;;;;;;;;;;6256865;28;20130;-77
2022/04/28 08:48:31;;;;;;;4.07;3.10;;;;;;;;;;6255108;28;20095;-76
2022/04/28 08:51:34;;;;;;;3.80;2.60;;;;;;;;;;6253138;28;20045;-77
2022/04/28 08:54:36;;;;;;;3.33;2.92;;;;;;;;;;6255601;28;20060;-77
2022/04/28 08:57:38;;;;;;;4.55;2.80;;;;;;;;;;6255978;28;20060;-76
2022/04/28 09:00:39;;;;;;;4.65;2.80;;;;;;;;;;6256634;28;20088;-76
2022/04/28 09:03:43;;;;;;;6.45;2.97;;;;;;;;;;6258791;28;20065;-76
2022/04/28 09:06:46;;;;;;;4.70;2.85;;;;;;;;;;6248879;28;20271;-76
2022/04/28 09:09:48;;;;;;;4.15;3.13;;;;;;;;;;6256461;28;20053;-76
2022/04/28 09:12:56;;;;;;;3.20;2.63;;;;;;;;;;6251743;28;20053;-77
2022/04/28 09:15:58;;;;;;;3.65;2.97;;;;;;;;;;6255709;28;20111;-76
2022/04/28 09:19:01;;;;;;;3.50;2.70;;;;;;;;;;6252386;28;20060;-76
2022/04/28 09:22:08;;;;;;;4.70;2.30;;;;;;;;;;6254085;28;20052;-75
2022/04/28 09:25:10;;;;;;;3.58;2.78;;;;;;;;;;6253143;28;20362;-76
2022/04/28 09:28:12;;;;;;;3.75;2.80;;;;;;;;;;6253381;28;20234;-76
2022/04/28 09:31:14;;;;;;;4.57;2.70;;;;;;;;;;6253524;28;20053;-76
2022/04/28 09:34:18;;;;;;;3.85;2.83;;;;;;;;;;6252899;28;20128;-77
2022/04/28 09:37:21;;;;;;;3.38;2.38;;;;;;;;;;6254284;28;20061;-77
2022/04/28 09:43:42;;;;;;;2.50;2.10;;;;;;;;;;6252176;28;19992;-77
2022/04/28 09:46:44;;;;;;;4.88;2.30;;;;;;;;;;6256643;28;20088;-76
2022/04/28 09:49:52;;;;;;;4.75;2.25;;;;;;;;;;6254975;28;20378;-77
2022/04/28 09:52:55;;;;;;;3.17;2.30;;;;;;;;;;6253934;28;20049;-77
2022/04/28 09:55:58;;;;;;;5.70;2.30;;;;;;;;;;6255350;28;20052;-77
2022/04/28 09:58:59;;;;;;;5.78;3.05;;;;;;;;;;6252913;28;20057;-77
2022/04/28 10:02:01;;;;;;;4.33;2.43;;;;;;;;;;6256759;28;20054;-77
2022/04/28 10:05:06;;;;;;;3.70;2.50;;;;;;;;;;6254073;28;20470;-77
2022/04/28 10:08:08;;;;;;;2.38;1.90;;;;;;;;;;6255224;28;20072;-77
2022/04/28 10:11:14;;;;;;;3.25;2.55;;;;;;;;;;6252021;28;20049;-78
2022/04/28 10:14:16;;;;;;;2.80;2.20;;;;;;;;;;6253434;28;20045;-77
2022/04/28 10:17:20;;;;;;;2.00;1.77;;;;;;;;;;6251681;28;20198;-78
2022/04/28 10:20:30;;;;;;;2.35;1.90;;;;;;;;;;6252690;28;20093;-77
2022/04/28 10:33:42;;;;;;;3.25;2.50;;;;;;;;;;6252688;28;20045;-78
2022/04/28 10:36:53;;;;;;;3.40;2.58;;;;;;;;;;6249343;28;20045;-79
2022/04/28 10:39:56;;;;;;;2.70;2.40;;;;;;;;;;6251788;28;20057;-78
2022/04/28 10:43:00;;;;;;;3.15;2.63;;;;;;;;;;6252422;28;20178;-79
2022/04/28 10:46:31;;;;;;;4.75;2.70;;;;;;;;;;6252668;28;20053;-79
2022/04/28 10:49:39;;;;;;;3.20;2.88;;;;;;;;;;6253841;28;20045;-78
2022/04/28 10:52:42;;;;;;;2.65;2.33;;;;;;;;;;6253516;28;20091;-79
2022/04/28 10:55:44;;;;;;;2.65;2.33;;;;;;;;;;6252785;28;20045;-78
2022/04/28 10:58:45;;;;;;;3.88;2.00;;;;;;;;;;6254546;28;20048;-78
2022/04/28 11:01:47;;;;;;;2.35;2.15;;;;;;;;;;6254258;28;20069;-77
2022/04/28 11:04:52;;;;;;;3.08;2.25;;;;;;;;;;6250968;28;20332;-79
2022/04/28 11:07:55;;;;;;;2.67;2.45;;;;;;;;;;6252566;28;20173;-77
2022/04/28 11:11:09;;;;;;;2.75;2.15;;;;;;;;;;6249348;28;20049;-78
2022/04/28 11:14:11;;;;;;;2.58;2.38;;;;;;;;;;6249739;28;20065;-78
2022/04/28 11:17:13;;;;;;;5.03;2.70;;;;;;;;;;6252602;28;20319;-77
2022/04/28 11:20:18;;;;;;;4.40;2.30;;;;;;;;;;6250636;28;20110;-78
2022/04/28 11:23:22;;;;;;;3.70;2.10;;;;;;;;;;6251789;28;20191;-80
2022/04/28 11:26:26;;;;;;;4.40;2.90;;;;;;;;;;6253138;28;20164;-78
2022/04/28 11:29:29;;;;;;;3.30;3.00;;;;;;;;;;6251704;28;20099;-79
2022/04/28 11:32:30;;;;;;;;;;;;;;;;;;6251614;28;20064;-81
2022/04/28 11:35:34;;;;;;;3.35;3.05;;;;;;;;;;6255495;28;20222;-82
2022/04/28 11:38:38;;;;;;;2.63;2.38;;;;;;;;;;6253052;28;20107;-77
2022/04/28 11:41:40;;;;;;;3.45;2.67;;;;;;;;;;6255810;28;20064;-77
2022/04/28 11:44:46;;;;;;;3.17;2.80;;;;;;;;;;6257620;28;20061;-77
2022/04/28 11:47:49;;;;;;;3.33;2.50;;;;;;;;;;6256279;28;20112;-76
2022/04/28 11:50:50;;;;;;;3.45;2.72;;;;;;;;;;6254301;28;20132;-75
2022/04/28 11:53:54;;;;;;;4.63;3.20;;;;;;;;;;6253886;28;20062;-76
2022/04/28 11:57:09;;;;;;;3.97;2.97;;;;;;;;;;6253350;28;20051;-74
2022/04/28 12:00:12;;;;;;;4.70;3.13;;;;;;;;;;6253864;28;20053;-74
2022/04/28 12:03:24;;;;;;;5.78;3.60;;;;;;;;;;6255057;28;20320;-77
2022/04/28 12:06:27;;;;;;;9.25;5.75;;;;;;;;;;6252610;28;20228;-74
2022/04/28 12:16:15;;;;;;;2.95;2.72;;;;;;;;;;6254082;28;20081;-73
2022/04/28 12:19:24;;;;;;;4.45;2.90;;;;;;;;;;6255896;28;20394;-77
2022/04/28 12:22:31;;;;;;;3.33;2.80;;;;;;;;;;6251467;28;20072;-77
2022/04/28 12:25:38;;;;;;;2.65;2.25;;;;;;;;;;6258500;28;20167;-78
2022/04/28 12:28:41;;;;;;;4.88;2.95;;;;;;;;;;6251293;28;20155;-79
2022/04/28 12:31:43;;;;;;;3.00;2.53;;;;;;;;;;6253863;28;20061;-73
2022/04/28 12:34:45;;;;;;;3.45;2.83;;;;;;;;;;6258331;28;20049;-73
2022/04/28 12:37:46;;;;;;;4.25;2.92;;;;;;;;;;6256608;28;20065;-74
2022/04/28 12:40:49;;;;;;;2.60;2.40;;;;;;;;;;6258152;28;20339;-74
2022/04/28 12:43:52;;;;;;;3.55;2.67;;;;;;;;;;6253076;28;20057;-75
2022/04/28 12:47:05;;;;;;;4.72;3.05;;;;;;;;;;6256074;28;20112;-71
2022/04/28 12:50:21;;;;;;;4.03;3.20;;;;;;;;;;6256489;28;20092;-75
2022/04/28 12:53:33;;;;;;;6.28;3.88;;;;;;;;;;6257009;28;20053;-74
2022/04/28 12:56:36;;;;;;;4.80;4.35;;;;;;;;;;6253498;28;20089;-77
2022/04/28 12:59:38;;;;;;;10.27;3.53;;;;;;;;;;6250925;28;20065;-76
2022/04/28 13:02:47;;;;;;;4.07;3.40;;;;;;;;;;6254215;28;20049;-77
2022/04/28 13:05:49;;;;;;;4.95;3.20;;;;;;;;;;6255090;28;20050;-79
2022/04/28 13:08:52;;;;;;;4.18;3.78;;;;;;;;;;6251323;28;20049;-77
2022/04/28 13:11:55;;;;;;;4.97;3.20;;;;;;;;;;6257225;28;20054;-78
2022/04/28 13:14:58;;;;;;;4.10;3.70;;;;;;;;;;6252928;28;20057;-74
2022/04/28 13:18:00;;;;;;;3.72;3.30;;;;;;;;;;6256202;28;20271;-77
2022/04/28 13:21:02;;;;;;;4.30;3.75;;;;;;;;;;6257540;28;20061;-75
2022/04/28 13:24:05;;;;;;;3.97;3.53;;;;;;;;;;6256920;28;20176;-75
2022/04/28 13:27:08;;;;;;;5.45;3.72;;;;;;;;;;6254315;28;20198;-76
2022/04/28 13:30:11;;;;;;;9.15;4.47;;;;;;;;;;6255970;28;20087;-77
2022/04/28 13:33:12;;;;;;;7.65;3.00;;;;;;;;;;6251939;28;20376;-76
2022/04/28 13:36:15;;;;;;;3.50;3.17;;;;;;;;;;6251290;28;20053;-76
2022/04/28 13:39:18;;;;;;;6.18;3.30;;;;;;;;;;6252285;28;20349;-75
2022/04/28 13:42:21;;;;;;;3.63;3.33;;;;;;;;;;6250987;28;20125;-75
2022/04/28 13:45:22;;;;;;;5.80;3.65;;;;;;;;;;6256327;28;20333;-72
2022/04/28 13:48:24;;;;;;;3.33;3.03;;;;;;;;;;6252376;28;20066;-73
2022/04/28 13:51:25;;;;;;;6.72;2.50;;;;;;;;;;6254106;28;20049;-74
2022/04/28 13:54:27;;;;;;;3.80;3.00;;;;;;;;;;6252685;28;20057;-74
2022/04/28 13:57:30;;;;;;;6.90;2.90;;;;;;;;;;6252017;28;20052;-75
2022/04/28 14:00:32;;;;;;;4.38;2.65;;;;;;;;;;6254327;28;20236;-75
2022/04/28 14:03:35;;;;;;;5.00;4.22;;;;;;;;;;6257135;28;20107;-75
2022/04/28 14:06:36;;;;;;;3.70;3.40;;;;;;;;;;6247409;28;20209;-73
2022/04/28 14:09:38;;;;;;;4.43;3.90;;;;;;;;;;6245214;28;20050;-74
2022/04/28 14:12:42;;;;;;;4.00;3.70;;;;;;;;;;6249776;28;20068;-75
2022/04/28 14:15:44;;;;;;;5.15;3.40;;;;;;;;;;6254159;28;20343;-75
2022/04/28 14:18:45;;;;;;;3.70;3.40;;;;;;;;;;6251445;28;20053;-76
2022/04/28 14:21:47;;;;;;;3.17;2.88;;;;;;;;;;6254070;28;20049;-75
2022/04/28 14:24:50;;;;;;;4.15;2.65;;;;;;;;;;6253800;28;20244;-73
2022/04/28 14:27:53;;;;;;;4.93;3.05;;;;;;;;;;6255081;28;20053;-75
2022/04/28 14:30:55;;;;;;;4.20;3.03;;;;;;;;;;6254015;28;20055;-76
2022/04/28 14:33:57;;;;;;;3.67;2.63;;;;;;;;;;6250896;28;20339;-75
2022/04/28 14:36:59;;;;;;;3.40;3.10;;;;;;;;;;6251596;28;20117;-75
2022/04/28 14:40:01;;;;;;;4.38;3.15;;;;;;;;;;6250665;28;20049;-75
2022/04/28 14:43:04;;;;;;;3.92;3.53;;;;;;;;;;6245804;28;20046;-76
2022/04/28 14:46:05;;;;;;;4.50;3.42;;;;;;;;;;6251310;28;20275;-76
2022/04/28 14:52:27;;;;;;;4.90;3.47;;;;;;;;;;6246964;28;20049;-74
2022/04/28 14:55:29;;;;;;;5.70;3.38;;;;;;;;;;6247604;28;20045;-76
2022/04/28 14:58:35;;;;;;;7.22;3.58;;;;;;;;;;6250868;28;20119;-75
2022/04/28 15:01:37;;;;;;;4.15;3.78;;;;;;;;;;6251499;28;20106;-74
2022/04/28 15:04:38;;;;;;;5.20;3.38;;;;;;;;;;6247453;28;20089;-74
2022/04/28 15:07:40;;;;;;;4.18;3.60;;;;;;;;;;6251653;28;20057;-74
2022/04/28 15:10:42;;;;;;;7.50;3.63;;;;;;;;;;6248211;28;20060;-74
2022/04/28 15:13:45;;;;;;;7.78;3.60;;;;;;;;;;6251767;28;20240;-74
2022/04/28 15:16:47;;;;;;;3.83;3.20;;;;;;;;;;6251508;28;20049;-74
2022/04/28 15:19:48;;;;;;;5.47;3.00;;;;;;;;;;6252249;28;20057;-74
2022/04/28 15:22:50;;;;;;;7.63;2.95;;;;;;;;;;6250872;28;20063;-73
2022/04/28 15:25:51;;;;;;;6.75;2.90;;;;;;;;;;6248921;28;20123;-73
2022/04/28 15:28:55;;;;;;;4.35;3.80;;;;;;;;;;6249220;28;20120;-76
2022/04/28 15:31:56;;;;;;;4.90;3.83;;;;;;;;;;6247965;28;20061;-71
2022/04/28 15:34:58;;;;;;;3.90;3.33;;;;;;;;;;6249428;28;20053;-72
2022/04/28 15:38:02;;;;;;;5.37;2.87;;;;;;;;;;6248327;28;20360;-72
2022/04/28 15:41:04;;;;;;;4.38;3.97;;;;;;;;;;6251093;28;20448;-73
2022/04/28 15:44:08;;;;;;;;;;;;;;;;;;6251461;28;20244;-73
2022/04/28 15:47:09;;;;;;;4.40;3.35;;;;;;;;;;6250042;28;19928;-73
2022/04/28 15:50:11;;;;;;;3.03;2.72;;;;;;;;;;6247482;28;20440;-72
2022/04/28 15:53:13;;;;;;;3.58;3.25;;;;;;;;;;6250038;28;20061;-73
2022/04/28 15:56:15;;;;;;;5.28;3.15;;;;;;;;;;6251174;28;20064;-72
2022/04/28 15:59:18;;;;;;;4.60;3.00;;;;;;;;;;6248442;28;20061;-72
2022/04/28 16:02:21;;;;;;;3.78;3.10;;;;;;;;;;6243816;28;20050;-72
2022/04/28 16:05:23;;;;;;;4.75;3.55;;;;;;;;;;6249162;28;20061;-74
2022/04/28 16:08:25;;;;;;;3.38;2.83;;;;;;;;;;6248481;28;20053;-74
2022/04/28 16:11:26;;;;;;;7.97;3.25;;;;;;;;;;6249383;28;20049;-74
2022/04/28 16:14:29;;;;;;;5.60;4.50;;;;;;;;;;6250496;28;20049;-74
2022/04/28 16:17:31;;;;;;;5.93;3.30;;;;;;;;;;6251046;28;20064;-74
2022/04/28 16:20:33;;;;;;;5.10;3.63;;;;;;;;;;6252596;28;20416;-74
2022/04/28 16:23:35;;;;;;;4.07;3.08;;;;;;;;;;6254911;28;20122;-74
2022/04/28 16:26:36;;;;;;;5.03;3.20;;;;;;;;;;6255692;28;20592;-74
2022/04/28 16:29:39;;;;;;;4.85;3.40;;;;;;;;;;6253887;28;20046;-74
2022/04/28 16:32:41;;;;;;;4.57;3.40;;;;;;;;;;6250261;28;20121;-73
2022/04/28 16:35:43;;;;;;;5.07;2.75;;;;;;;;;;6251271;28;20244;-73
2022/04/28 16:38:45;;;;;;;5.25;3.28;;;;;;;;;;6252050;28;20045;-73
2022/04/28 16:41:47;;;;;;;4.93;2.85;;;;;;;;;;6253161;28;20399;-73
2022/04/28 16:44:50;;;;;;;7.47;3.45;;;;;;;;;;6253419;28;20049;-73
2022/04/28 16:47:52;;;;;;;;;;;;;;;;;;6251701;28;20061;-73
2022/04/28 16:50:54;;;;;;;3.53;2.80;;;;;;;;;;6250637;28;19924;-74
2022/04/28 16:53:56;;;;;;;6.93;3.28;;;;;;;;;;6245578;28;20060;-74
2022/04/28 16:56:59;;;;;;;5.20;3.33;;;;;;;;;;6251629;28;20427;-75
2022/04/28 17:00:02;;;;;;;4.07;3.33;;;;;;;;;;6253708;28;20061;-73
2022/04/28 17:06:23;;;;;;;3.83;2.70;;;;;;;;;;6252058;28;20445;-72
2022/04/28 17:09:25;;;;;;;5.32;3.60;;;;;;;;;;6253194;28;20061;-73
2022/04/28 17:12:28;;;;;;;5.72;3.00;;;;;;;;;;6252675;28;20272;-72
2022/04/28 17:15:31;;;;;;;5.78;3.63;;;;;;;;;;6255081;28;20072;-73
2022/04/28 17:18:32;;;;;;;5.55;3.10;;;;;;;;;;6252312;28;20197;-73
2022/04/28 17:21:34;;;;;;;7.53;3.65;;;;;;;;;;6255177;28;20271;-73
2022/04/28 17:24:37;;;;;;;5.32;4.32;;;;;;;;;;6254305;28;20057;-74
2022/04/28 17:27:39;;;;;;;5.73;4.10;;;;;;;;;;6248940;28;20057;-72
2022/04/28 17:30:42;;;;;;;5.93;4.30;;;;;;;;;;6251340;28;20049;-73
2022/04/28 17:33:44;;;;;;;5.85;3.90;;;;;;;;;;6248543;28;20153;-72
2022/04/28 17:36:45;;;;;;;5.45;3.60;;;;;;;;;;6250487;28;20076;-72
2022/04/28 17:39:47;;;;;;;9.15;4.97;;;;;;;;;;6250675;28;20049;-73
2022/04/28 17:42:49;;;;;;;6.20;4.20;;;;;;;;;;6251732;28;20049;-72
2022/04/28 17:45:52;;;;;;;7.13;4.18;;;;;;;;;;6253113;28;20069;-71
2022/04/28 17:48:53;;;;;;;8.90;4.05;;;;;;;;;;6252162;28;20328;-72
2022/04/28 17:51:55;;;;;;;5.93;4.40;;;;;;;;;;6251500;28;20457;-70
2022/04/28 18:01:37;;;;;;;6.88;4.60;;;;;;;;;;6252962;28;20049;-71
2022/04/28 18:04:38;;;;;;;;;;;;;;;;;;6253281;28;20061;-72
2022/04/28 18:07:42;;;;;;;8.63;5.10;;;;;;;;;;6252838;28;19926;-72
2022/04/28 18:10:43;;;;;;;11.10;4.47;;;;;;;;;;6253339;28;20103;-71
2022/04/28 18:13:51;;;;;;;8.27;4.65;;;;;;;;;;6250945;28;20068;-71
2022/04/28 18:16:55;;;;;;;6.85;4.50;;;;;;;;;;6251200;28;20052;-70
2022/04/28 18:19:56;;;;;;;8.23;4.65;;;;;;;;;;6252319;28;20343;-71
2022/04/28 18:22:58;;;;;;;6.72;4.88;;;;;;;;;;6251488;28;20128;-71
2022/04/28 18:26:00;;;;;;;6.88;4.90;;;;;;;;;;6251742;28;20345;-73
2022/04/28 18:29:03;;;;;;;8.75;4.47;;;;;;;;;;6252627;28;20071;-72
2022/04/28 18:32:07;;;;;;;48.87;18.60;;;;;;;;;;6249415;28;20060;-76
2022/04/28 18:35:09;;;;;;;13.90;6.65;;;;;;;;;;6246842;28;20045;-79
2022/04/28 18:44:49;;;;;;;8.45;5.03;;;;;;;;;;6250205;28;20057;-75
2022/04/28 18:47:53;;;;;;;6.38;4.20;;;;;;;;;;6248844;28;20053;-76
2022/04/28 18:50:54;;;;;;;7.22;4.97;;;;;;;;;;6251362;28;20091;-74
2022/04/28 18:53:56;;;;;;;12.73;5.60;;;;;;;;;;6254366;28;20123;-78
2022/04/28 18:57:01;;;;;;;7.68;4.28;;;;;;;;;;6253932;28;20041;-71
2022/04/28 19:00:02;;;;;;;9.88;5.97;;;;;;;;;;6252540;28;20077;-76
2022/04/28 19:03:07;;;;;;;13.27;11.07;;;;;;;;;;6246837;28;20321;-74
2022/04/28 19:06:08;;;;;;;10.60;7.15;;;;;;;;;;6249897;28;20115;-71
2022/04/28 19:09:10;;;;;;;9.57;4.80;;;;;;;;;;6252615;28;20060;-75
2022/04/28 19:12:13;;;;;;;8.20;4.50;;;;;;;;;;6254041;28;20084;-71